createdAt,value
2023-01-15T00:00:13.665Z,100399.66
2023-01-15T00:01:25.279Z,100400.45
2023-01-15T00:02:30.753Z,100390.28
2023-01-15T00:03:33.797Z,100391.23
2023-01-15T00:04:37.207Z,100394.72
2023-01-15T00:05:39.818Z,100399.89
2023-01-15T00:06:42.883Z,100390.44
2023-01-15T00:07:45.260Z,100397.28
2023-01-15T00:08:48.113Z,100391.44
2023-01-15T00:09:50.980Z,100392.33
2023-01-15T05:56:58.829Z,100308.68
2023-01-15T05:58:01.121Z,100306.82
2023-01-15T05:59:03.857Z,100311.98
2023-01-15T06:00:07.959Z,100300.11
2023-01-15T06:01:12.277Z,100301.85
2023-01-15T06:02:14.551Z,100301.91
2023-01-15T06:03:16.600Z,100301.92
2023-01-15T06:04:20.859Z,100301.97
2023-01-15T06:05:23.222Z,100309.64
2023-01-15T06:06:26.338Z,100302.88
2023-01-15T06:07:28.611Z,100302.03
2023-01-15T06:08:31.104Z,100307.09
2023-01-15T06:09:33.373Z,100308.86
2023-01-15T06:10:35.617Z,100304.65
2023-01-15T06:11:38.078Z,100297.10
2023-01-15T06:12:40.390Z,100305.66
2023-01-15T06:13:42.809Z,100310.81
2023-01-15T06:14:44.852Z,100306.50
2023-01-15T06:15:47.159Z,100300.51
2023-01-15T06:16:49.548Z,100302.28
2023-01-15T06:17:51.555Z,100295.55
2023-01-15T06:18:53.917Z,100306.71
2023-01-15T06:19:56.070Z,100305.05
2023-01-15T06:21:04.441Z,100309.31
2023-01-15T06:22:09.615Z,100314.28
2023-01-15T06:23:12.196Z,100310.94
2023-01-15T06:24:17.176Z,100317.66
2023-01-15T06:25:19.266Z,100306.43
2023-01-15T06:26:21.889Z,100315.83
2023-01-15T06:27:24.776Z,100297.99
2023-01-15T06:28:27.657Z,100308.17
2023-01-15T06:29:29.775Z,100308.17
2023-01-15T06:30:33.702Z,100300.59
2023-01-15T06:31:36.445Z,100310.88
2023-01-15T06:32:38.484Z,100305.78
2023-01-15T06:33:41.099Z,100307.45
2023-01-15T06:34:45.134Z,100300.60
2023-01-15T06:35:47.326Z,100300.61
2023-01-15T06:36:49.655Z,100304.94
2023-01-15T06:37:52.330Z,100309.17
2023-01-15T06:38:54.727Z,100304.00
2023-01-15T06:39:57.211Z,100301.39
2023-01-15T06:41:01.948Z,100303.98
2023-01-15T06:42:22.767Z,100297.16
2023-01-15T06:43:44.226Z,100301.50
2023-01-15T06:45:04.733Z,100300.60
2023-01-15T06:46:27.826Z,100295.50
2023-01-15T06:48:42.569Z,100288.87
2023-01-15T06:49:44.625Z,100293.84
2023-01-15T06:59:05.832Z,100299.11
2023-01-15T07:02:18.034Z,100288.19
2023-01-15T07:06:26.996Z,100291.53
2023-01-15T07:07:30.416Z,100291.38
2023-01-15T07:08:32.624Z,100293.11
2023-01-15T07:09:34.967Z,100286.32
2023-01-15T07:10:37.350Z,100288.93
2023-01-15T07:11:51.203Z,100293.99
2023-01-15T07:18:06.807Z,100287.11
2023-01-15T07:19:08.850Z,100288.05
2023-01-15T07:20:12.373Z,100288.05
2023-01-15T07:21:14.690Z,100288.00
2023-01-15T07:22:16.576Z,100284.70
2023-01-15T07:23:18.455Z,100285.48
2023-01-15T07:24:23.696Z,100283.86
2023-01-15T07:25:26.868Z,100290.73
2023-01-15T07:26:29.112Z,100292.38
2023-01-15T07:27:31.157Z,100285.53
2023-01-15T07:28:33.598Z,100288.14
2023-01-15T07:29:35.811Z,100300.14
2023-01-15T07:30:38.434Z,100295.86
2023-01-15T07:31:40.947Z,100295.81
2023-01-15T07:32:43.039Z,100294.05
2023-01-15T07:33:45.104Z,100292.37
2023-01-15T07:34:47.660Z,100283.87
2023-01-15T07:35:49.656Z,100287.27
2023-01-15T07:36:54.971Z,100291.48
2023-01-15T07:37:57.651Z,100290.65
2023-01-15T07:39:01.318Z,100292.41
2023-01-15T07:40:04.740Z,100295.81
2023-01-15T07:41:25.499Z,100294.09
2023-01-15T07:42:46.152Z,100292.37
2023-01-15T07:44:07.629Z,100294.13
2023-01-15T07:45:29.220Z,100289.02
2023-01-15T07:46:50.244Z,100290.65
2023-01-15T07:48:12.244Z,100294.05
2023-01-15T07:49:33.311Z,100291.58
2023-01-15T07:50:36.473Z,100290.69
2023-01-15T07:51:38.545Z,100285.63
2023-01-15T07:52:41.327Z,100288.14
2023-01-15T07:53:43.593Z,100290.75
2023-01-15T07:54:46.784Z,100290.70
2023-01-15T07:55:49.760Z,100290.83
2023-01-15T07:56:53.542Z,100292.55
2023-01-15T07:57:56.143Z,100286.52
2023-01-15T07:58:58.307Z,100286.52
2023-01-15T08:00:01.126Z,100293.39
2023-01-15T08:01:03.373Z,100296.75
2023-01-15T08:02:06.764Z,100303.70
2023-01-15T08:03:10.009Z,100296.91
2023-01-15T08:04:12.570Z,100301.15
2023-01-15T08:05:15.932Z,100299.43
2023-01-15T08:06:19.339Z,100293.52
2023-01-15T08:07:21.594Z,100306.22
2023-01-15T08:08:23.827Z,100300.19
2023-01-15T08:09:26.136Z,100296.87
2023-01-15T08:10:28.479Z,100297.70
2023-01-15T08:11:50.986Z,100291.76
2023-01-15T08:13:11.631Z,100292.59
2023-01-15T08:14:32.285Z,100290.84
2023-01-15T08:15:40.145Z,100292.59
2023-01-15T08:16:42.594Z,100290.03
2023-01-15T08:17:47.778Z,100294.31
2023-01-15T08:18:49.932Z,100290.08
2023-01-15T08:19:52.468Z,100295.19
2023-01-15T08:20:54.756Z,100284.97
2023-01-15T08:21:57.547Z,100288.44
2023-01-15T08:23:01.556Z,100289.27
2023-01-15T08:24:04.460Z,100292.63
2023-01-15T08:25:09.723Z,100289.15
2023-01-15T08:26:12.354Z,100295.98
2023-01-15T08:27:14.373Z,100291.76
2023-01-15T08:28:16.774Z,100287.52
2023-01-15T08:29:19.263Z,100294.31
2023-01-15T08:30:25.627Z,100293.47
2023-01-15T08:31:28.184Z,100292.63
2023-01-15T08:32:30.342Z,100295.19
2023-01-15T08:33:33.126Z,100296.06
2023-01-15T08:34:35.203Z,100294.31
2023-01-15T08:35:37.542Z,100294.31
2023-01-15T08:36:40.306Z,100291.00
2023-01-15T08:37:43.312Z,100290.16
2023-01-15T08:38:51.787Z,100296.11
2023-01-15T08:39:57.550Z,100295.16
2023-01-15T08:41:00.041Z,100296.87
2023-01-15T08:42:03.165Z,100287.48
2023-01-15T08:43:10.010Z,100284.92
2023-01-15T08:44:15.062Z,100288.23
2023-01-15T08:45:17.954Z,100289.08
2023-01-15T08:46:24.734Z,100284.84
2023-01-15T08:47:28.300Z,100281.48
2023-01-15T08:48:32.277Z,100282.41
2023-01-15T08:49:35.418Z,100281.60
2023-01-15T08:50:38.644Z,100287.52
2023-01-15T08:51:42.351Z,100281.56
2023-01-15T08:52:44.487Z,100279.05
2023-01-15T08:53:46.689Z,100273.93
2023-01-15T08:54:50.661Z,100265.42
2023-01-15T08:55:52.961Z,100273.05
2023-01-15T08:56:55.103Z,100269.69
2023-01-15T08:57:57.797Z,100272.14
2023-01-15T08:59:06.647Z,100273.02
2023-01-15T09:00:10.916Z,100271.37
2023-01-15T09:01:16.399Z,100264.58
2023-01-15T09:02:19.484Z,100261.21
2023-01-15T09:03:23.140Z,100262.89
2023-01-15T09:04:26.580Z,100264.55
2023-01-15T09:05:33.512Z,100266.19
2023-01-15T09:06:35.931Z,100261.03
2023-01-15T09:07:38.606Z,100262.78
2023-01-15T09:08:40.809Z,100261.14
2023-01-15T09:09:43.481Z,100259.49
2023-01-15T09:10:45.632Z,100262.09
2023-01-15T09:11:47.812Z,100256.16
2023-01-15T09:12:50.293Z,100253.60
2023-01-15T09:13:54.609Z,100251.85
2023-01-15T09:15:02.138Z,100241.55
2023-01-15T09:16:04.799Z,100241.55
2023-01-15T09:17:07.736Z,100256.97
2023-01-15T09:18:12.168Z,100248.42
2023-01-15T09:19:15.707Z,100239.88
2023-01-15T09:20:18.479Z,100245.86
2023-01-15T09:21:20.722Z,100246.70
2023-01-15T09:22:23.955Z,100248.39
2023-01-15T09:23:26.463Z,100250.10
2023-01-15T09:24:29.113Z,100244.95
2023-01-15T09:25:31.227Z,100247.61
2023-01-15T09:27:48.531Z,100232.28
2023-01-15T09:28:50.947Z,100233.87
2023-01-15T09:29:53.219Z,100232.94
2023-01-15T09:33:12.619Z,100238.09
2023-01-15T09:34:14.877Z,100232.94
2023-01-15T09:37:35.139Z,100222.84
2023-01-15T09:38:37.433Z,100226.17
2023-01-15T09:39:39.936Z,100214.29
2023-01-15T09:40:49.111Z,100215.91
2023-01-15T09:42:10.282Z,100212.52
2023-01-15T09:43:22.901Z,100214.23
2023-01-15T09:44:50.464Z,100211.64
2023-01-15T09:46:11.157Z,100209.08
2023-01-15T09:47:19.690Z,100213.28
2023-01-15T09:48:46.323Z,100209.88
2023-01-15T09:50:05.032Z,100216.72
2023-01-15T15:47:07.532Z,99968.48
2023-01-15T15:48:48.506Z,99963.32
2023-01-15T15:49:50.706Z,99964.19
2023-01-15T15:50:54.201Z,99964.22
2023-01-15T15:52:01.114Z,99963.40
2023-01-15T15:53:05.162Z,99957.45
2023-01-15T15:54:20.419Z,99964.27
2023-01-15T15:55:26.558Z,99961.69
2023-01-15T15:56:31.018Z,99960.00
2023-01-15T15:57:35.598Z,99962.58
2023-01-15T15:58:39.415Z,99957.47
2023-01-15T15:59:51.882Z,99962.58
2023-01-15T16:00:56.251Z,99955.78
2023-01-15T16:02:02.338Z,99957.47
2023-01-15T16:03:09.128Z,99953.23
2023-01-15T16:04:16.111Z,99955.78
2023-01-15T16:05:28.744Z,99948.13
2023-01-15T16:06:31.617Z,99957.50
2023-01-15T16:07:35.814Z,99951.57
2023-01-15T16:08:38.878Z,99949.85
2023-01-15T16:09:52.831Z,99951.55
2023-01-15T16:11:01.157Z,99951.55
2023-01-15T16:12:05.896Z,99950.70
2023-01-15T16:13:11.917Z,99949.02
2023-01-15T16:46:05.567Z,99948.05
2023-01-15T16:47:11.633Z,99948.00
2023-01-15T16:48:30.978Z,99933.52
2023-01-15T16:49:35.016Z,99930.09
2023-01-15T16:50:42.474Z,99939.41
2023-01-15T16:51:44.903Z,99941.99
2023-01-15T16:52:54.081Z,99932.64
2023-01-15T16:53:58.146Z,99931.83
2023-01-15T16:55:02.222Z,99935.25
2023-01-15T16:56:05.881Z,99933.56
2023-01-15T16:57:27.148Z,99927.63
2023-01-15T16:58:36.547Z,99930.17
2023-01-15T16:59:57.604Z,99927.59
2023-01-15T17:01:02.821Z,99927.59
2023-01-15T17:02:09.007Z,99930.98
2023-01-15T17:03:20.872Z,99932.72
2023-01-15T17:04:35.563Z,99929.30
2023-01-15T17:05:38.098Z,99916.53
2023-01-15T17:06:40.762Z,99919.05
2023-01-15T17:07:46.654Z,99919.08
2023-01-15T17:08:50.164Z,99921.62
2023-01-15T17:09:57.365Z,99923.34
2023-01-15T17:11:01.627Z,99924.19
2023-01-15T17:12:10.422Z,99917.39
2023-01-15T17:13:18.887Z,99920.83
2023-01-15T17:14:27.042Z,99922.52
2023-01-15T17:15:37.185Z,99914.02
2023-01-15T17:16:39.892Z,99915.71
2023-01-15T17:17:44.305Z,99905.48
2023-01-15T17:18:48.985Z,99914.02
2023-01-15T17:19:55.474Z,99910.59
2023-01-15T17:20:59.638Z,99910.59
2023-01-15T17:22:01.887Z,99906.33
2023-01-15T17:23:09.590Z,99913.98
2023-01-15T17:24:12.723Z,99910.59
2023-01-15T17:25:27.774Z,99914.01
2023-01-15T17:26:30.071Z,99905.50
2023-01-15T17:27:32.701Z,99912.30
2023-01-15T17:28:36.033Z,99908.90
2023-01-15T17:29:38.702Z,99911.45
2023-01-15T17:30:40.791Z,99916.56
2023-01-15T17:31:45.867Z,99912.30
2023-01-15T17:32:48.542Z,99904.63
2023-01-15T17:33:51.526Z,99918.31
2023-01-15T17:34:53.581Z,99903.81
2023-01-15T17:35:57.563Z,99912.31
2023-01-15T17:37:00.857Z,99905.49
2023-01-15T17:38:04.302Z,99910.59
2023-01-15T17:39:08.357Z,99904.64
2023-01-15T17:40:12.687Z,99910.60
2023-01-15T17:41:17.659Z,99901.27
2023-01-15T17:42:20.645Z,99898.70
2023-01-15T17:43:23.771Z,99900.42
2023-01-15T17:44:27.099Z,99903.83
2023-01-15T17:45:31.415Z,99892.75
2023-01-15T17:46:33.637Z,99890.22
2023-01-15T17:47:36.093Z,99894.50
2023-01-15T17:48:42.703Z,99885.95
2023-01-15T17:49:45.538Z,99886.80
2023-01-15T17:50:48.003Z,99890.22
2023-01-15T17:51:50.652Z,99885.95
2023-01-15T17:52:52.783Z,99881.67
2023-01-15T17:53:56.678Z,99884.26
2023-01-15T17:55:19.081Z,99882.55
2023-01-15T17:56:39.826Z,99872.35
2023-01-15T17:58:00.858Z,99871.50
2023-01-15T18:52:14.118Z,99813.49
2023-01-15T18:53:16.429Z,99818.59
2023-01-15T18:54:19.615Z,99820.32
2023-01-15T22:14:10.274Z,99739.41
2023-01-15T22:15:12.600Z,99747.89
2023-01-15T22:16:16.622Z,99747.91
2023-01-15T22:17:19.035Z,99758.98
2023-01-15T22:18:26.292Z,99758.97
2023-01-15T22:19:31.447Z,99758.98
2023-01-15T22:20:33.698Z,99770.91
2023-01-15T22:21:36.052Z,99767.53
2023-01-15T22:22:38.662Z,99757.32
2023-01-15T22:23:42.714Z,99756.47
2023-01-15T22:24:44.934Z,99762.42
2023-01-15T22:25:47.019Z,99764.13
2023-01-15T22:26:51.301Z,99754.73
2023-01-15T22:27:54.068Z,99759.88
2023-01-15T22:29:01.678Z,99753.91
2023-01-15T22:30:04.927Z,99740.27
2023-01-15T22:31:07.150Z,99741.13
2023-01-15T22:32:14.101Z,99733.45
2023-01-15T22:33:17.203Z,99740.25
2023-01-15T22:34:21.770Z,99731.73
2023-01-15T22:35:26.418Z,99730.91
2023-01-15T22:36:29.661Z,99727.48
2023-01-15T22:37:31.831Z,99736.86
2023-01-15T22:38:34.747Z,99726.64
2023-01-15T22:39:36.887Z,99729.20
2023-01-15T22:40:39.062Z,99736.87
2023-01-15T22:42:01.062Z,99730.91
2023-01-15T22:43:03.872Z,99723.23
2023-01-15T22:44:07.964Z,99719.84
2023-01-15T22:45:10.550Z,99730.90
2023-01-15T22:46:14.785Z,99725.80
2023-01-15T22:47:19.220Z,99733.46
2023-01-15T22:48:21.264Z,99727.50
2023-01-15T22:49:24.020Z,99721.53
2023-01-15T22:50:26.653Z,99728.36
2023-01-15T22:51:29.179Z,99724.09
2023-01-15T22:52:31.360Z,99724.09
2023-01-15T22:53:35.264Z,99721.53
2023-01-15T22:54:37.565Z,99721.53
2023-01-15T22:55:40.062Z,99711.30
2023-01-15T22:56:42.266Z,99718.97
2023-01-15T22:57:46.283Z,99705.36
2023-01-15T22:58:48.512Z,99700.25
2023-01-15T22:59:50.827Z,99695.14
2023-01-15T23:00:55.650Z,99715.55
2023-01-15T23:01:57.922Z,99707.89
2023-01-15T23:03:06.564Z,99707.05
2023-01-15T23:04:14.203Z,99707.89
2023-01-15T23:05:16.509Z,99709.59
2023-01-15T23:06:18.837Z,99709.59
2023-01-15T23:07:22.176Z,99705.34
2023-01-15T23:08:25.955Z,99707.06
2023-01-15T23:09:28.137Z,99707.05
2023-01-15T23:10:30.618Z,99698.55
2023-01-15T23:11:33.064Z,99703.63
2023-01-15T23:12:35.173Z,99708.75
2023-01-15T23:13:39.305Z,99707.91
2023-01-15T23:14:41.403Z,99706.20
2023-01-15T23:15:48.631Z,99702.78
2023-01-15T23:16:52.062Z,99701.95
2023-01-15T23:17:54.340Z,99707.89
2023-01-15T23:18:56.607Z,99707.05
2023-01-15T23:19:58.801Z,99718.11
2023-01-15T23:21:10.704Z,99700.23
2023-01-15T23:22:12.829Z,99703.66
2023-01-15T23:23:15.163Z,99713.86
2023-01-15T23:24:17.868Z,99707.05
2023-01-15T23:25:20.538Z,99719.83
2023-01-15T23:26:24.740Z,99705.34
2023-01-15T23:27:27.003Z,99707.07
2023-01-15T23:28:29.622Z,99707.05
2023-01-15T23:29:33.790Z,99707.05
2023-01-15T23:30:36.273Z,99700.23
2023-01-15T23:31:38.288Z,99696.84
2023-01-15T23:32:41.769Z,99704.51
2023-01-15T23:33:44.781Z,99699.39
2023-01-15T23:34:47.420Z,99694.27
2023-01-15T23:35:49.447Z,99695.99
2023-01-15T23:36:52.061Z,99698.55
2023-01-15T23:37:54.101Z,99695.98
2023-01-15T23:38:56.339Z,99686.62
2023-01-15T23:39:58.925Z,99695.14
2023-01-15T23:41:10.512Z,99694.28
2023-01-15T23:42:31.011Z,99692.58
2023-01-15T23:43:52.012Z,99697.70
2023-01-15T23:45:13.075Z,99687.48
2023-01-15T23:46:34.492Z,99694.28
2023-01-15T23:47:37.149Z,99691.72
2023-01-15T23:48:40.101Z,99690.02
2023-01-15T23:49:43.307Z,99687.47
2023-01-15T23:50:45.670Z,99693.42
2023-01-15T23:51:47.951Z,99688.31
2023-01-15T23:52:49.949Z,99681.51
2023-01-15T23:53:54.560Z,99687.48
2023-01-15T23:54:56.783Z,99687.48
2023-01-15T23:56:00.561Z,99687.47
2023-01-15T23:57:03.617Z,99688.33
2023-01-15T23:58:06.165Z,99678.09
2023-01-15T23:59:08.336Z,99683.22
